Time;durP1;ratioP1;P1;durP2;ratioP2;P2;SDS_P1;SDS_P2;PMS_P1;PMS_P2;Temp;Humidity;BMP_temperature;BMP_pressure;BME280_temperature;BME280_humidity;BME280_pressure;Samples;Min_cycle;Max_cycle;Signal;HPM_P1;HPM_P2
2023/10/31 00:01:50;;;;;;;2.10;1.87;;;;;;;12.54;76.84;94726.25;5006238;28;20429;-69
2023/10/31 00:04:15;;;;;;;2.13;1.73;;;;;;;12.59;77.07;94735.47;5006005;28;20223;-70
2023/10/31 00:06:41;;;;;;;2.23;2.00;;;;;;;12.46;77.36;94735.56;5008821;28;20196;-70
2023/10/31 00:09:07;;;;;;;1.70;1.50;;;;;;;12.57;77.06;94726.03;5009913;28;20180;-71
2023/10/31 00:11:32;;;;;;;1.73;1.43;;;;;;;12.56;76.21;94729.59;5009837;28;20180;-70
2023/10/31 00:13:57;;;;;;;1.57;1.40;;;;;;;12.57;75.82;94718.94;5009759;28;20188;-69
2023/10/31 00:16:23;;;;;;;1.40;1.20;;;;;;;12.59;76.30;94717.03;5010159;28;20204;-71
2023/10/31 00:18:49;;;;;;;1.57;1.40;;;;;;;12.55;76.54;94720.88;5009813;28;20207;-71
2023/10/31 00:21:14;;;;;;;2.90;1.50;;;;;;;12.55;76.30;94728.75;5009602;28;20203;-69
2023/10/31 00:23:47;;;;;;;1.80;1.20;;;;;;;12.43;76.55;94730.56;5009620;28;20176;-70
2023/10/31 00:26:12;;;;;;;1.80;1.40;;;;;;;12.35;76.56;94726.84;5009369;28;20646;-69
2023/10/31 00:28:37;;;;;;;2.93;1.43;;;;;;;12.52;75.43;94729.00;5010452;28;20423;-69
2023/10/31 00:31:03;;;;;;;1.90;1.50;;;;;;;12.58;74.79;94738.22;5011159;28;20707;-70
2023/10/31 00:33:29;;;;;;;2.73;1.30;;;;;;;12.48;75.39;94736.28;5027048;28;20171;-69
2023/10/31 00:35:55;;;;;;;3.20;1.60;;;;;;;12.45;75.98;94727.81;5029393;28;20419;-70
2023/10/31 00:38:20;;;;;;;2.07;1.40;;;;;;;12.45;75.78;94725.19;5027493;28;20245;-70
2023/10/31 00:40:46;;;;;;;1.53;1.20;;;;;;;12.31;75.98;94728.03;5029260;28;20833;-70
2023/10/31 00:43:11;;;;;;;1.60;1.23;;;;;;;12.29;76.27;94722.91;5029037;28;20211;-71
2023/10/31 00:45:37;;;;;;;1.40;1.30;;;;;;;12.35;75.75;94722.41;5028804;28;20167;-70
2023/10/31 00:48:02;;;;;;;4.90;1.20;;;;;;;12.21;76.54;94718.25;5029160;28;20183;-70
2023/10/31 00:50:28;;;;;;;1.90;1.40;;;;;;;12.27;77.23;94717.75;5027366;28;20187;-70
2023/10/31 00:52:54;;;;;;;1.70;1.50;;;;;;;12.28;76.66;94710.69;5029688;28;20184;-71
2023/10/31 00:55:19;;;;;;;1.30;1.10;;;;;;;12.31;75.93;94710.47;5028807;28;20422;-71
2023/10/31 00:57:45;;;;;;;1.77;1.50;;;;;;;12.25;77.18;94729.34;5010913;28;20211;-70
2023/10/31 01:00:10;;;;;;;1.50;1.23;;;;;;;12.41;76.18;94726.38;5028616;28;20194;-70
2023/10/31 01:02:36;;;;;;;1.93;1.63;;;;;;;12.40;76.20;94722.91;5028637;28;20281;-69
2023/10/31 01:05:01;;;;;;;1.83;1.17;;;;;;;12.32;76.16;94732.34;5028320;28;20175;-69
2023/10/31 01:07:27;;;;;;;1.67;1.03;;;;;;;12.19;76.96;94742.94;5028550;28;20198;-70
2023/10/31 01:09:52;;;;;;;2.07;1.33;;;;;;;12.18;77.99;94736.03;5028249;28;20175;-70
2023/10/31 01:12:17;;;;;;;1.60;1.00;;;;;;;12.24;77.47;94740.84;5028645;28;20176;-72
2023/10/31 01:14:43;;;;;;;3.87;1.50;;;;;;;12.21;77.30;94735.78;5028531;28;20650;-70
2023/10/31 01:17:08;;;;;;;1.60;1.47;;;;;;;12.29;77.11;94739.50;5027359;28;20762;-70
2023/10/31 01:19:33;;;;;;;1.70;1.20;;;;;;;12.29;76.69;94749.19;5028559;28;20175;-70
2023/10/31 01:21:59;;;;;;;1.60;1.50;;;;;;;12.22;76.95;94740.13;5028545;28;20184;-70
2023/10/31 01:24:24;;;;;;;1.70;1.40;;;;;;;12.26;76.62;94754.72;5027945;28;20218;-70
2023/10/31 01:26:50;;;;;;;1.73;1.50;;;;;;;12.21;77.44;94762.09;5028427;28;20291;-71
2023/10/31 01:29:15;;;;;;;1.60;1.30;;;;;;;12.18;77.82;94757.06;5028463;28;20219;-70
2023/10/31 01:31:41;;;;;;;2.17;1.50;;;;;;;12.19;77.64;94764.00;5028016;28;20203;-72
2023/10/31 01:34:08;;;;;;;1.50;1.03;;;;;;;12.19;77.26;94764.00;5009127;28;20180;-72
2023/10/31 01:36:33;;;;;;;1.73;1.63;;;;;;;12.23;76.87;94781.22;5008093;28;20442;-70
2023/10/31 01:38:59;;;;;;;1.67;1.40;;;;;;;12.05;78.04;94786.09;5007910;28;20508;-70
2023/10/31 01:41:24;;;;;;;2.53;1.40;;;;;;;12.05;77.92;94799.25;5008111;28;20184;-70
2023/10/31 01:43:50;;;;;;;1.50;1.30;;;;;;;12.23;76.73;94800.47;5008175;28;20184;-70
2023/10/31 01:46:15;;;;;;;1.50;1.40;;;;;;;12.29;77.45;94815.78;5009140;28;20231;-71
2023/10/31 01:48:41;;;;;;;11.20;2.13;;;;;;;12.27;77.70;94815.06;5008495;28;20965;-69
2023/10/31 01:51:07;;;;;;;3.17;1.27;;;;;;;12.20;77.30;94824.38;5008409;28;20195;-72
2023/10/31 01:53:34;;;;;;;1.60;1.20;;;;;;;12.21;77.21;94822.56;5008270;28;20448;-70
2023/10/31 01:56:01;;;;;;;2.00;1.50;;;;;;;12.24;77.53;94825.00;5007895;28;20175;-71
2023/10/31 01:58:30;;;;;;;1.90;1.60;;;;;;;12.22;76.67;94830.34;5007716;28;20915;-71
2023/10/31 02:00:57;;;;;;;1.80;1.50;;;;;;;12.19;77.60;94827.09;5008097;28;20830;-70
2023/10/31 02:03:23;;;;;;;2.30;1.47;;;;;;;12.21;77.78;94814.69;5008033;28;20426;-71
2023/10/31 02:05:50;;;;;;;2.00;1.40;;;;;;;12.18;77.42;94815.75;5008092;28;20425;-71
2023/10/31 02:08:16;;;;;;;2.13;1.50;;;;;;;12.15;77.46;94807.28;5007886;28;20245;-70
2023/10/31 02:10:41;;;;;;;2.23;1.70;;;;;;;12.17;77.04;94811.47;5008085;28;20415;-70
2023/10/31 02:13:17;;;;;;;2.37;2.10;;;;;;;12.18;77.52;94814.94;5008124;28;20775;-70
2023/10/31 02:15:43;;;;;;;2.73;1.90;;;;;;;12.18;76.95;94810.50;5008285;28;20188;-71
2023/10/31 02:18:09;;;;;;;2.50;2.10;;;;;;;12.19;77.38;94813.97;5011325;28;20475;-71
2023/10/31 02:20:35;;;;;;;5.03;2.47;;;;;;;12.31;77.03;94817.44;5011287;28;20176;-70
2023/10/31 02:23:00;;;;;;;2.23;1.90;;;;;;;12.20;76.90;94815.66;5012578;28;20203;-71
2023/10/31 02:25:26;;;;;;;2.80;2.20;;;;;;;12.18;76.74;94825.44;5016797;28;20415;-73
2023/10/31 02:27:51;;;;;;;2.60;2.40;;;;;;;12.21;76.24;94817.31;5016792;28;20495;-70
2023/10/31 02:30:17;;;;;;;2.30;2.10;;;;;;;12.24;76.59;94804.78;5014466;28;20182;-72
2023/10/31 02:32:42;;;;;;;4.57;3.03;;;;;;;12.17;77.15;94808.00;5021436;28;20820;-71
2023/10/31 02:35:08;;;;;;;2.50;2.30;;;;;;;12.08;77.41;94810.34;5034000;28;20197;-71
2023/10/31 02:37:34;;;;;;;2.27;2.07;;;;;;;12.15;77.20;94813.38;5030305;28;20947;-71
2023/10/31 02:40:00;;;;;;;3.00;2.60;;;;;;;12.13;77.06;94819.69;5027036;28;20255;-70
2023/10/31 02:42:26;;;;;;;2.97;2.50;;;;;;;12.17;77.31;94821.16;5026807;28;20272;-70
2023/10/31 02:44:51;;;;;;;2.50;2.23;;;;;;;12.15;77.35;94829.16;5026495;28;20484;-71
2023/10/31 02:47:17;;;;;;;3.53;2.50;;;;;;;12.23;76.74;94833.81;5026478;28;20434;-70
2023/10/31 02:49:42;;;;;;;4.37;2.83;;;;;;;12.08;76.59;94836.66;5026787;28;20262;-70
2023/10/31 02:52:08;;;;;;;4.60;2.60;;;;;;;12.05;77.16;94836.88;5026639;28;20950;-71
2023/10/31 02:54:33;;;;;;;3.83;3.53;;;;;;;12.04;76.94;94835.19;5026356;28;20664;-70
2023/10/31 02:56:58;;;;;;;4.83;2.40;;;;;;;12.04;76.90;94834.38;5026185;28;20203;-71
2023/10/31 02:59:24;;;;;;;2.53;2.30;;;;;;;12.10;77.07;94835.72;5026282;28;20175;-70
2023/10/31 03:01:49;;;;;;;5.33;2.67;;;;;;;12.13;76.74;94843.38;5026376;28;20178;-71
2023/10/31 03:04:15;;;;;;;2.73;2.43;;;;;;;12.13;76.97;94841.56;5026620;28;21037;-68
2023/10/31 03:06:40;;;;;;;3.40;2.50;;;;;;;11.99;77.16;94839.97;5026446;28;20191;-70
2023/10/31 03:09:06;;;;;;;3.03;2.67;;;;;;;12.01;77.41;94840.69;5026208;28;20190;-70
2023/10/31 03:11:32;;;;;;;7.47;2.80;;;;;;;12.02;76.64;94837.13;5026581;28;20876;-69
2023/10/31 03:13:58;;;;;;;3.40;2.40;;;;;;;12.04;76.86;94839.63;5025792;28;20442;-70
2023/10/31 03:16:24;;;;;;;3.80;2.47;;;;;;;12.07;76.35;94853.41;5026047;28;20217;-70
2023/10/31 03:18:49;;;;;;;2.40;2.20;;;;;;;12.10;76.71;94857.59;5026590;28;20249;-69
2023/10/31 03:21:14;;;;;;;2.47;2.27;;;;;;;11.96;76.69;94861.22;5026133;28;20229;-69
2023/10/31 03:23:41;;;;;;;4.83;2.30;;;;;;;11.98;77.40;94861.97;5026112;28;20179;-70
2023/10/31 03:26:06;;;;;;;3.57;2.10;;;;;;;12.06;76.22;94859.59;5025918;28;20175;-70
2023/10/31 03:28:32;;;;;;;3.30;3.00;;;;;;;12.02;76.05;94863.41;5026600;28;21127;-71
2023/10/31 03:30:57;;;;;;;7.90;3.30;;;;;;;11.95;76.38;94870.09;5026801;28;20175;-70
2023/10/31 03:33:23;;;;;;;3.60;2.33;;;;;;;11.92;76.93;94872.91;5014006;28;20180;-70
2023/10/31 03:35:49;;;;;;;5.27;2.90;;;;;;;11.86;76.78;94868.09;5006351;28;20199;-68
2023/10/31 03:38:14;;;;;;;3.60;2.67;;;;;;;11.96;76.95;94879.63;5006279;28;20466;-70
2023/10/31 03:40:39;;;;;;;3.17;2.67;;;;;;;11.90;76.06;94880.06;5005937;28;20255;-70
2023/10/31 03:43:05;;;;;;;2.83;2.43;;;;;;;11.97;76.93;94875.22;5006220;28;20682;-69
2023/10/31 03:45:30;;;;;;;4.40;2.87;;;;;;;12.00;76.22;94870.56;5006059;28;20202;-69
2023/10/31 03:47:56;;;;;;;3.23;2.90;;;;;;;11.94;76.65;94871.03;5006020;28;20267;-70
2023/10/31 03:50:21;;;;;;;3.70;2.80;;;;;;;11.89;76.90;94875.78;5006457;28;20293;-70
2023/10/31 03:52:46;;;;;;;3.50;2.87;;;;;;;11.90;76.52;94874.81;5006190;28;20180;-69
2023/10/31 03:55:12;;;;;;;2.90;2.70;;;;;;;11.91;77.00;94879.13;5006284;28;20230;-71
2023/10/31 03:57:37;;;;;;;4.60;3.13;;;;;;;11.90;76.05;94884.50;5006517;28;20304;-71
2023/10/31 04:00:06;;;;;;;2.87;2.57;;;;;;;11.90;76.75;94880.06;5006254;28;20180;-70
2023/10/31 04:02:32;;;;;;;2.77;2.57;;;;;;;11.87;76.12;94877.69;5006425;28;20203;-71
2023/10/31 04:04:57;;;;;;;2.63;2.43;;;;;;;11.97;75.53;94886.56;5005916;28;20415;-68
2023/10/31 04:07:23;;;;;;;4.90;3.10;;;;;;;11.86;76.18;94889.13;5006262;28;20200;-68
2023/10/31 04:09:48;;;;;;;2.80;2.60;;;;;;;11.83;76.20;94891.97;5006665;28;20180;-71
2023/10/31 04:12:13;;;;;;;3.03;2.20;;;;;;;11.81;76.14;94894.72;5006701;28;20188;-68
2023/10/31 04:14:39;;;;;;;2.77;2.43;;;;;;;11.82;75.34;94891.13;5006138;28;20238;-71
2023/10/31 04:17:04;;;;;;;4.10;2.83;;;;;;;11.92;75.31;94898.38;5006521;28;20200;-70
2023/10/31 04:19:30;;;;;;;2.23;2.00;;;;;;;11.98;74.01;94893.50;5007238;28;20188;-67
2023/10/31 04:21:55;;;;;;;2.30;2.10;;;;;;;12.01;73.79;94892.44;5006433;28;20183;-69
2023/10/31 04:24:21;;;;;;;2.33;1.70;;;;;;;11.90;73.62;94898.47;5005884;28;20182;-70
2023/10/31 04:26:46;;;;;;;4.13;1.97;;;;;;;11.84;74.08;94899.75;5006324;28;20196;-70
2023/10/31 04:29:12;;;;;;;4.90;1.70;;;;;;;11.81;73.98;94897.34;5006429;28;20206;-69
2023/10/31 04:31:37;;;;;;;2.70;1.77;;;;;;;11.91;73.63;94905.44;5005698;28;20192;-70
2023/10/31 04:34:02;;;;;;;4.30;1.97;;;;;;;11.80;73.82;94894.81;5023047;28;20934;-70
2023/10/31 04:36:28;;;;;;;1.90;1.53;;;;;;;11.78;73.96;94907.22;5025500;28;20228;-68
2023/10/31 04:38:53;;;;;;;5.43;2.00;;;;;;;11.75;73.95;94903.03;5025396;28;20203;-70
2023/10/31 04:41:19;;;;;;;5.00;1.90;;;;;;;11.71;73.99;94898.94;5024075;28;20180;-70
2023/10/31 04:43:45;;;;;;;4.37;2.07;;;;;;;11.69;73.94;94908.72;5025695;28;20179;-70
2023/10/31 04:46:11;;;;;;;3.50;1.83;;;;;;;11.65;74.08;94907.28;5025271;28;20290;-73
2023/10/31 04:48:36;;;;;;;2.60;1.80;;;;;;;11.60;73.90;94902.38;5025586;28;21076;-69
2023/10/31 04:51:02;;;;;;;2.50;1.53;;;;;;;11.69;73.95;94905.25;5025546;28;20190;-71
2023/10/31 04:53:27;;;;;;;1.70;1.50;;;;;;;11.73;73.53;94891.78;5027733;28;20179;-70
2023/10/31 04:55:52;;;;;;;1.87;1.77;;;;;;;11.72;73.30;94897.19;5029205;28;20257;-70
2023/10/31 04:58:18;;;;;;;2.67;1.70;;;;;;;11.62;74.20;94896.97;5028993;28;20954;-69
2023/10/31 05:00:44;;;;;;;9.03;2.33;;;;;;;11.67;74.34;94900.13;5029436;28;20176;-70
2023/10/31 05:03:09;;;;;;;2.67;2.07;;;;;;;11.56;74.00;94893.00;5029099;28;20179;-70
2023/10/31 05:05:35;;;;;;;2.70;2.20;;;;;;;11.52;73.83;94904.69;5030658;28;21066;-71
2023/10/31 05:08:00;;;;;;;2.13;1.60;;;;;;;11.52;74.00;94894.19;5030433;28;20205;-69
2023/10/31 05:10:26;;;;;;;3.43;2.07;;;;;;;11.50;73.74;94896.06;5028142;28;20180;-70
2023/10/31 05:12:51;;;;;;;10.47;1.93;;;;;;;11.54;73.57;94901.97;5029580;28;20552;-70
2023/10/31 05:15:17;;;;;;;2.37;1.67;;;;;;;11.53;74.06;94911.63;5028455;28;20187;-69
2023/10/31 05:17:42;;;;;;;4.50;1.83;;;;;;;11.54;73.81;94915.09;5028956;28;20308;-69
2023/10/31 05:20:11;;;;;;;2.73;1.60;;;;;;;11.53;73.38;94930.03;5029338;28;20203;-70
2023/10/31 05:22:37;;;;;;;3.20;1.90;;;;;;;11.61;73.50;94919.78;5029053;28;20183;-70
2023/10/31 05:25:02;;;;;;;2.23;1.47;;;;;;;11.42;73.89;94924.69;5028604;28;20410;-71
2023/10/31 05:27:28;;;;;;;5.33;3.33;;;;;;;11.51;73.76;94916.16;5028547;28;20283;-70
2023/10/31 05:29:54;;;;;;;6.80;2.10;;;;;;;11.38;74.25;94924.03;5028757;28;20234;-71
2023/10/31 05:32:19;;;;;;;2.33;1.77;;;;;;;11.36;74.07;94925.09;5024775;28;20272;-69
2023/10/31 05:34:44;;;;;;;1.87;1.67;;;;;;;11.37;73.83;94929.44;5009020;28;20594;-69
2023/10/31 05:37:10;;;;;;;2.50;1.50;;;;;;;11.35;74.02;94931.31;5011927;28;20207;-70
2023/10/31 05:39:36;;;;;;;2.43;1.50;;;;;;;11.40;73.75;94939.72;5013277;28;20223;-68
2023/10/31 05:42:02;;;;;;;1.70;1.53;;;;;;;11.37;74.40;94940.75;5018913;28;20188;-70
2023/10/31 05:44:28;;;;;;;2.97;1.80;;;;;;;11.37;74.37;94946.03;5017720;28;20481;-70
2023/10/31 05:46:53;;;;;;;3.67;2.10;;;;;;;12.12;88.71;94946.84;5008468;28;20292;-71
2023/10/31 05:49:19;;;;;;;2.77;1.83;;;;;;;13.13;81.89;94947.13;5014708;28;20194;-70
2023/10/31 05:51:45;;;;;;;8.80;3.93;;;;;;;13.31;75.46;94944.91;5007316;28;20210;-69
2023/10/31 05:54:11;;;;;;;4.03;1.70;;;;;;;13.61;74.91;94949.59;5012398;28;20183;-69
2023/10/31 05:56:36;;;;;;;4.33;2.00;;;;;;;12.96;70.16;94961.59;5015180;28;20461;-66
2023/10/31 05:59:01;;;;;;;4.50;1.50;;;;;;;12.14;71.95;94977.38;5009114;28;20216;-68
2023/10/31 06:01:27;;;;;;;4.07;1.73;;;;;;;11.74;74.41;94985.47;5008328;28;20192;-67
2023/10/31 06:03:52;;;;;;;2.50;1.57;;;;;;;11.62;75.38;94996.81;5008692;28;20285;-68
2023/10/31 06:06:17;;;;;;;2.77;1.50;;;;;;;11.49;76.43;95001.28;5020224;28;20206;-68
2023/10/31 06:08:43;;;;;;;3.13;2.17;;;;;;;11.26;77.08;95010.75;5024355;28;20179;-68
2023/10/31 06:11:12;;;;;;;2.40;1.60;;;;;;;11.39;76.82;95017.69;5019175;28;20234;-69
2023/10/31 06:13:37;;;;;;;2.33;1.70;;;;;;;11.37;76.56;95027.44;5022322;28;20638;-68
2023/10/31 06:16:03;;;;;;;4.60;1.63;;;;;;;11.46;76.20;95033.84;5023223;28;20442;-68
2023/10/31 06:18:28;;;;;;;3.83;2.00;;;;;;;11.34;76.07;95029.44;5013605;28;20239;-67
2023/10/31 06:20:57;;;;;;;1.67;1.20;;;;;;;11.29;76.60;95037.66;5020316;28;20265;-67
2023/10/31 06:23:22;;;;;;;7.00;1.80;;;;;;;11.35;76.13;95041.63;5023247;28;20194;-66
2023/10/31 06:25:48;;;;;;;3.03;1.63;;;;;;;11.38;76.08;95036.16;5021980;28;20463;-66
2023/10/31 06:28:13;;;;;;;6.00;1.73;;;;;;;11.45;76.12;95045.28;5019407;28;20234;-68
2023/10/31 06:30:38;;;;;;;5.93;1.60;;;;;;;11.48;75.72;95046.88;5011429;28;20267;-68
2023/10/31 06:33:04;;;;;;;2.30;1.73;;;;;;;11.46;75.72;95054.88;5019141;28;20644;-68
2023/10/31 06:35:29;;;;;;;4.03;1.70;;;;;;;11.53;74.69;95055.28;5021112;28;20590;-68
2023/10/31 06:37:56;;;;;;;2.87;1.47;;;;;;;11.36;75.62;95054.66;5017170;28;20215;-68
2023/10/31 06:40:23;;;;;;;5.57;1.37;;;;;;;11.41;74.47;95054.34;5017118;28;20219;-69
2023/10/31 06:42:48;;;;;;;3.53;1.20;;;;;;;11.34;74.72;95068.81;5017877;28;20438;-68
2023/10/31 06:45:14;;;;;;;3.40;1.80;;;;;;;11.29;75.19;95060.41;5019364;28;20508;-68
2023/10/31 06:47:39;;;;;;;2.90;1.77;;;;;;;11.32;74.39;95065.47;5016227;28;20222;-68
2023/10/31 06:50:07;;;;;;;14.83;2.27;;;;;;;11.32;74.57;95062.84;5016905;28;20183;-67
2023/10/31 06:52:32;;;;;;;24.40;3.13;;;;;;;11.34;74.92;95066.19;5010546;28;20207;-67
2023/10/31 06:54:58;;;;;;;5.43;1.83;;;;;;;11.35;74.87;95073.97;5017474;28;20445;-67
2023/10/31 06:57:23;;;;;;;10.93;2.63;;;;;;;13.22;90.70;95069.41;5021756;28;20222;-68
2023/10/31 06:59:48;;;;;;;3.90;2.47;;;;;;;14.19;83.20;95066.25;5014418;28;20176;-67
2023/10/31 07:02:14;;;;;;;4.80;1.80;;;;;;;12.74;69.36;95075.59;5014171;28;20290;-67
2023/10/31 07:04:40;;;;;;;5.63;1.60;;;;;;;12.08;71.04;95089.06;5016541;28;20237;-68
2023/10/31 07:07:05;;;;;;;8.17;1.93;;;;;;;11.68;73.29;95092.78;5016738;28;20200;-69
2023/10/31 07:09:31;;;;;;;3.77;1.63;;;;;;;11.54;73.73;95097.19;5011061;28;20596;-69
2023/10/31 07:11:56;;;;;;;5.00;1.87;;;;;;;11.50;72.74;95100.16;5006729;28;20175;-68
2023/10/31 07:14:21;;;;;;;3.50;1.73;;;;;;;11.45;73.46;95103.09;5004146;28;20184;-69
2023/10/31 07:16:48;;;;;;;1.70;1.27;;;;;;;11.45;73.95;95113.59;5004978;28;20199;-69
2023/10/31 07:19:17;;;;;;;1.90;1.40;;;;;;;11.35;73.33;95108.13;5004422;28;20965;-68
2023/10/31 07:21:42;;;;;;;3.03;1.70;;;;;;;11.36;73.52;95109.81;5012069;28;20438;-69
2023/10/31 07:24:08;;;;;;;2.83;1.60;;;;;;;11.51;72.56;95110.56;5010218;28;21212;-68
2023/10/31 07:26:37;;;;;;;3.20;1.60;;;;;;;11.36;72.57;95111.59;5014627;28;20200;-68
2023/10/31 07:29:02;;;;;;;4.70;1.43;;;;;;;11.29;73.42;95121.69;5017990;28;20434;-68
2023/10/31 07:31:28;;;;;;;4.30;2.00;;;;;;;11.29;74.25;95126.94;5027362;28;21093;-69
2023/10/31 07:33:53;;;;;;;5.13;2.20;;;;;;;11.27;72.98;95110.44;5013242;28;20176;-68
2023/10/31 07:36:19;;;;;;;1.63;1.27;;;;;;;11.26;73.34;95115.78;5022232;28;20754;-68
2023/10/31 07:38:44;;;;;;;5.47;2.80;;;;;;;11.29;73.17;95120.81;5032195;28;20796;-68
2023/10/31 07:41:09;;;;;;;3.27;2.23;;;;;;;11.21;72.89;95119.56;5043159;28;20182;-69
2023/10/31 07:43:35;;;;;;;13.67;2.97;;;;;;;11.28;72.54;95116.53;5043714;28;20182;-68
2023/10/31 07:46:00;;;;;;;3.93;1.50;;;;;;;11.43;71.45;95118.97;5043612;28;20646;-68
2023/10/31 07:48:26;;;;;;;10.00;3.60;;;;;;;11.36;71.36;95130.84;5043986;28;20173;-68
2023/10/31 07:50:51;;;;;;;6.13;1.93;;;;;;;11.26;72.44;95131.53;5043795;28;20179;-68
2023/10/31 07:53:17;;;;;;;10.27;3.00;;;;;;;11.28;71.99;95133.13;5058790;28;20708;-68
2023/10/31 07:55:42;;;;;;;17.10;3.77;;;;;;;11.35;72.83;95136.19;5043668;28;20179;-69
2023/10/31 07:58:09;;;;;;;4.50;1.90;;;;;;;11.32;72.17;95134.59;5044006;28;20253;-69
2023/10/31 08:00:35;;;;;;;5.70;1.70;;;;;;;11.34;72.46;95139.72;5043163;28;20171;-67
2023/10/31 08:03:00;;;;;;;2.37;1.30;;;;;;;11.37;71.98;95139.56;5004209;28;20921;-69
2023/10/31 08:05:25;;;;;;;8.13;1.97;;;;;;;11.48;71.63;95139.69;5003793;28;20179;-69
2023/10/31 08:07:51;;;;;;;11.53;3.00;;;;;;;11.52;72.01;95138.50;5002730;28;20219;-69
2023/10/31 08:10:16;;;;;;;4.30;1.97;;;;;;;11.46;71.01;95141.56;5004522;28;20172;-69
2023/10/31 08:12:41;;;;;;;2.87;1.60;;;;;;;11.39;71.84;95141.13;5004425;28;20264;-68
2023/10/31 08:15:08;;;;;;;8.27;2.20;;;;;;;11.49;70.99;95135.25;5003699;28;20249;-68
2023/10/31 08:17:33;;;;;;;3.37;1.90;;;;;;;11.61;70.65;95132.63;5003982;28;20216;-68
2023/10/31 08:19:59;;;;;;;3.30;1.70;;;;;;;11.44;71.26;95133.78;5019349;28;20514;-68
2023/10/31 08:22:24;;;;;;;3.07;1.83;;;;;;;11.47;70.60;95130.09;5004066;28;20184;-68
2023/10/31 08:24:50;;;;;;;3.80;2.37;;;;;;;11.40;71.36;95134.91;5003850;28;20225;-68
2023/10/31 08:27:15;;;;;;;24.23;3.33;;;;;;;11.38;71.53;95135.97;5008191;28;20199;-69
2023/10/31 08:29:41;;;;;;;4.17;1.67;;;;;;;11.42;70.30;95155.84;5009979;28;20172;-67
2023/10/31 08:32:06;;;;;;;4.40;1.87;;;;;;;11.56;69.56;95149.66;5011818;28;20542;-69
2023/10/31 08:34:32;;;;;;;2.63;1.67;;;;;;;11.49;70.36;95149.22;5029419;28;20425;-68
2023/10/31 08:36:59;;;;;;;8.63;2.20;;;;;;;11.48;69.86;95146.69;5029357;28;20270;-69
2023/10/31 08:39:24;;;;;;;3.87;1.80;;;;;;;11.66;68.79;95140.19;5029434;28;20186;-69
2023/10/31 08:41:54;;;;;;;6.57;2.10;;;;;;;11.56;69.35;95139.97;5029536;28;20804;-70
2023/10/31 08:44:20;;;;;;;4.87;1.90;;;;;;;11.58;68.92;95132.84;5029377;28;20272;-70
2023/10/31 08:46:45;;;;;;;9.10;2.00;;;;;;;11.66;69.37;95130.50;5029350;28;20430;-68
2023/10/31 08:49:11;;;;;;;3.50;1.40;;;;;;;11.72;68.78;95128.44;5029270;28;20692;-68
2023/10/31 08:51:37;;;;;;;7.83;2.10;;;;;;;11.74;68.96;95135.28;5029058;28;20210;-68
2023/10/31 08:54:02;;;;;;;15.33;2.60;;;;;;;11.71;69.01;95130.19;5028951;28;21214;-68
2023/10/31 08:56:28;;;;;;;3.27;2.43;;;;;;;11.81;68.84;95127.78;5028803;28;20230;-70
2023/10/31 08:58:53;;;;;;;30.23;4.47;;;;;;;11.81;68.21;95133.03;5028863;28;20284;-68
2023/10/31 09:01:19;;;;;;;22.33;4.93;;;;;;;12.00;67.74;95135.25;5029678;28;20512;-68
2023/10/31 09:03:45;;;;;;;13.63;2.23;;;;;;;11.95;68.06;95138.22;5029335;28;20175;-68
2023/10/31 09:06:10;;;;;;;4.27;3.30;;;;;;;12.01;68.05;95145.69;5029207;28;20450;-69
2023/10/31 09:08:36;;;;;;;6.80;2.17;;;;;;;11.96;67.53;95137.28;5029437;28;20183;-69
2023/10/31 09:11:03;;;;;;;1.87;1.57;;;;;;;12.07;67.79;95147.88;5029109;28;20210;-69
2023/10/31 09:13:29;;;;;;;3.20;1.20;;;;;;;12.11;67.62;95145.03;5029445;28;20476;-69
2023/10/31 09:15:54;;;;;;;1.70;1.40;;;;;;;12.09;67.17;95150.38;5029061;28;20430;-69
2023/10/31 09:18:20;;;;;;;3.87;1.60;;;;;;;12.02;67.79;95147.38;5029123;28;20215;-69
2023/10/31 09:20:45;;;;;;;3.20;1.40;;;;;;;12.08;66.35;95146.09;5028713;28;20282;-70
2023/10/31 09:23:10;;;;;;;3.07;1.37;;;;;;;12.06;67.24;95143.56;5028997;28;20200;-69
2023/10/31 09:25:36;;;;;;;2.67;1.53;;;;;;;12.16;66.70;95148.19;5028700;28;20225;-69
2023/10/31 09:28:01;;;;;;;4.73;1.70;;;;;;;12.25;66.83;95143.09;5028710;28;20509;-70
2023/10/31 09:30:27;;;;;;;5.43;1.73;;;;;;;12.41;66.07;95142.88;5028715;28;20186;-69
2023/10/31 09:32:52;;;;;;;9.97;2.03;;;;;;;12.37;66.30;95154.56;5020802;28;20187;-69
2023/10/31 09:35:18;;;;;;;2.90;2.03;;;;;;;12.36;65.92;95154.69;5010426;28;20176;-66
2023/10/31 09:37:43;;;;;;;3.73;1.50;;;;;;;12.37;65.27;95159.81;5011621;28;20204;-70
2023/10/31 09:40:10;;;;;;;9.63;1.40;;;;;;;12.48;65.53;95165.16;5013009;28;20249;-67
2023/10/31 09:42:36;;;;;;;4.50;1.50;;;;;;;12.56;65.56;95166.41;5027500;28;20196;-69
2023/10/31 09:45:02;;;;;;;10.17;2.30;;;;;;;12.66;65.43;95180.56;5030932;28;20507;-69
2023/10/31 09:47:27;;;;;;;14.73;1.70;;;;;;;12.76;64.22;95184.25;5031356;28;20200;-66
2023/10/31 09:49:52;;;;;;;5.20;1.60;;;;;;;12.71;64.62;95186.38;5031402;28;20171;-67
2023/10/31 09:52:20;;;;;;;8.53;1.80;;;;;;;12.86;63.49;95184.41;5024418;28;20168;-69
2023/10/31 09:54:47;;;;;;;2.90;1.40;;;;;;;12.85;64.39;95188.84;5007681;28;20565;-68
2023/10/31 09:57:14;;;;;;;6.23;1.73;;;;;;;12.86;64.02;95185.25;5008296;28;20543;-66
2023/10/31 09:59:39;;;;;;;8.40;1.90;;;;;;;12.96;63.04;95193.31;5008547;28;20430;-68
2023/10/31 10:02:05;;;;;;;13.73;2.80;;;;;;;12.96;63.50;95195.97;5008348;28;20407;-69
2023/10/31 10:04:31;;;;;;;19.40;3.80;;;;;;;13.10;63.34;95203.69;5008462;28;20518;-69
2023/10/31 10:07:01;;;;;;;3.53;2.10;;;;;;;13.17;62.65;95190.09;5008568;28;20199;-69
2023/10/31 10:09:27;;;;;;;8.80;2.33;;;;;;;13.23;63.27;95198.38;5008611;28;20854;-68
2023/10/31 10:11:54;;;;;;;6.27;2.30;;;;;;;13.58;62.43;95200.19;5006300;28;20434;-68
2023/10/31 10:14:22;;;;;;;7.10;2.13;;;;;;;13.87;61.10;95191.91;5007437;28;20422;-70
2023/10/31 10:16:47;;;;;;;5.03;1.70;;;;;;;13.82;60.12;95188.75;5007605;28;20434;-67
2023/10/31 10:19:22;;;;;;;5.60;1.60;;;;;;;13.90;59.72;95197.78;5007606;28;20458;-68
2023/10/31 10:21:48;;;;;;;21.13;3.00;;;;;;;13.93;60.35;95202.81;5007692;28;20178;-70
2023/10/31 10:24:14;;;;;;;22.70;3.50;;;;;;;13.89;59.95;95203.16;5007850;28;20411;-68
2023/10/31 10:26:39;;;;;;;16.37;3.50;;;;;;;14.02;60.14;95205.72;5007697;28;20678;-67
2023/10/31 10:29:05;;;;;;;20.93;3.80;;;;;;;14.29;58.58;95208.00;5008357;28;20172;-67
2023/10/31 10:31:30;;;;;;;20.53;3.17;;;;;;;14.44;58.25;95212.09;5008039;28;20644;-69
2023/10/31 10:33:55;;;;;;;10.47;2.63;;;;;;;14.46;58.69;95198.81;5024542;28;20360;-68
2023/10/31 10:36:22;;;;;;;17.70;2.80;;;;;;;14.56;57.92;95205.06;5027754;28;20191;-68
2023/10/31 10:38:54;;;;;;;14.93;4.17;;;;;;;14.66;57.96;95210.44;5027637;28;20539;-70
2023/10/31 10:41:21;;;;;;;21.90;4.30;;;;;;;14.50;57.57;95208.13;5027089;28;20410;-68
2023/10/31 10:43:49;;;;;;;50.87;6.50;;;;;;;14.29;57.65;95211.50;5027157;28;20445;-68
2023/10/31 10:46:17;;;;;;;23.93;3.13;;;;;;;14.16;58.07;95210.78;5027157;28;20421;-67
2023/10/31 10:48:47;;;;;;;10.93;2.10;;;;;;;14.14;58.40;95208.25;5026957;28;20410;-68
2023/10/31 10:51:28;;;;;;;6.63;2.60;;;;;;;13.98;58.38;95205.09;5027058;28;20398;-69
2023/10/31 10:54:11;;;;;;;4.60;2.20;;;;;;;13.89;58.71;95211.06;5026486;28;20410;-68
2023/10/31 10:56:46;;;;;;;6.27;2.00;;;;;;;13.73;58.88;95217.53;5026397;28;20425;-69
2023/10/31 10:59:14;;;;;;;5.53;2.30;;;;;;;13.59;59.39;95222.16;5026691;28;20449;-70
2023/10/31 11:01:41;;;;;;;6.43;2.17;;;;;;;13.53;58.95;95220.78;5026681;28;20504;-67
2023/10/31 11:04:07;;;;;;;4.80;1.87;;;;;;;13.48;59.94;95215.88;5026600;28;21277;-71
2023/10/31 11:06:35;;;;;;;2.80;1.80;;;;;;;13.46;60.03;95217.78;5026672;28;20433;-68
2023/10/31 11:09:00;;;;;;;7.60;1.70;;;;;;;13.54;60.36;95219.88;5024864;28;20194;-69
2023/10/31 11:11:27;;;;;;;8.73;2.10;;;;;;;13.44;60.27;95221.47;5026750;28;20411;-70
2023/10/31 11:13:56;;;;;;;6.40;2.10;;;;;;;13.38;60.72;95219.31;5026609;28;20699;-67
2023/10/31 11:16:41;;;;;;;3.23;2.03;;;;;;;13.49;60.65;95224.63;5024772;28;20454;-70
2023/10/31 11:19:08;;;;;;;3.93;2.50;;;;;;;13.45;60.75;95220.53;5026423;28;20492;-65
2023/10/31 11:21:34;;;;;;;4.50;1.80;;;;;;;13.46;61.17;95223.03;5024876;28;20812;-68
2023/10/31 11:24:01;;;;;;;8.83;4.37;;;;;;;13.33;61.51;95232.81;5025904;28;20415;-69
2023/10/31 11:26:27;;;;;;;2.67;2.00;;;;;;;13.30;61.86;95236.53;5026593;28;20210;-68